Time;durP1;ratioP1;P1;durP2;ratioP2;P2;SDS_P1;SDS_P2;PMS_P1;PMS_P2;Temp;Humidity;BMP_temperature;BMP_pressure;BME280_temperature;BME280_humidity;BME280_pressure;Samples;Min_cycle;Max_cycle;Signal;HPM_P1;HPM_P2
2022/10/31 00:00:59;;;;;;;10.03;3.07;;;12.70;99.90;;;;;;5110445;28;20438;-77
2022/10/31 00:03:26;;;;;;;8.63;4.10;;;12.80;99.90;;;;;;5110757;28;20538;-76
2022/10/31 00:05:51;;;;;;;12.83;3.80;;;12.90;99.90;;;;;;5092422;28;20917;-76
2022/10/31 00:08:17;;;;;;;6.07;2.87;;;13.00;99.90;;;;;;5110107;28;20435;-76
2022/10/31 00:10:44;;;;;;;11.40;3.30;;;13.00;99.90;;;;;;5110212;28;20530;-76
2022/10/31 00:13:14;;;;;;;9.87;3.20;;;12.70;99.90;;;;;;5109948;28;20978;-76
2022/10/31 00:15:40;;;;;;;8.77;3.17;;;12.80;99.90;;;;;;5074779;28;20420;-76
2022/10/31 00:18:07;;;;;;;6.30;3.17;;;12.90;99.90;;;;;;5109495;28;20428;-77
2022/10/31 00:20:33;;;;;;;4.13;3.30;;;12.90;99.90;;;;;;5109330;28;20412;-75
2022/10/31 00:23:03;;;;;;;6.43;3.20;;;12.80;99.90;;;;;;5109635;28;20514;-76
2022/10/31 00:25:32;;;;;;;18.53;3.23;;;12.70;99.90;;;;;;5109793;28;20581;-77
2022/10/31 00:27:58;;;;;;;7.00;3.60;;;12.70;99.90;;;;;;5091509;28;20431;-76
2022/10/31 00:30:23;;;;;;;13.73;2.93;;;12.80;99.90;;;;;;5074230;28;20431;-77
2022/10/31 00:32:49;;;;;;;7.73;3.23;;;12.80;99.90;;;;;;5109307;28;20212;-76
2022/10/31 00:35:14;;;;;;;5.60;2.97;;;12.70;99.90;;;;;;5091093;28;20671;-77
2022/10/31 00:37:40;;;;;;;12.83;2.90;;;12.70;99.90;;;;;;5109260;28;20197;-76
2022/10/31 00:40:06;;;;;;;9.20;3.67;;;12.70;99.90;;;;;;5073913;28;20185;-76
2022/10/31 00:42:32;;;;;;;8.93;3.50;;;12.70;99.90;;;;;;5057459;28;20185;-76
2022/10/31 00:44:57;;;;;;;7.80;3.40;;;12.80;99.90;;;;;;5090808;28;20422;-76
2022/10/31 00:47:23;;;;;;;16.33;4.00;;;12.80;99.90;;;;;;5109426;28;20837;-76
2022/10/31 00:49:49;;;;;;;7.07;2.90;;;12.70;99.90;;;;;;5091874;28;20181;-77
2022/10/31 00:52:14;;;;;;;13.30;3.80;;;12.80;99.90;;;;;;5075679;28;20584;-77
2022/10/31 00:54:40;;;;;;;7.43;4.17;;;12.70;99.90;;;;;;5090625;28;20180;-76
2022/10/31 00:57:05;;;;;;;10.17;3.27;;;12.90;99.90;;;;;;5090640;28;20202;-76
2022/10/31 00:59:31;;;;;;;6.90;3.33;;;12.90;99.90;;;;;;5090745;28;20185;-76
2022/10/31 01:01:56;;;;;;;8.83;3.93;;;12.90;99.90;;;;;;5074391;28;20207;-77
2022/10/31 01:04:22;;;;;;;8.93;3.27;;;12.90;99.90;;;;;;5109582;28;20602;-77
2022/10/31 01:06:48;;;;;;;7.17;3.40;;;12.80;99.90;;;;;;5109443;28;20312;-76
2022/10/31 01:09:13;;;;;;;7.07;3.33;;;13.00;99.90;;;;;;5076948;28;20732;-76
2022/10/31 01:11:39;;;;;;;11.00;3.50;;;12.80;99.90;;;;;;5112910;28;20208;-76
2022/10/31 01:14:04;;;;;;;16.10;3.53;;;12.90;99.90;;;;;;5094802;28;20174;-76
2022/10/31 01:16:30;;;;;;;8.67;3.83;;;12.90;99.90;;;;;;5077774;28;20197;-76
2022/10/31 01:18:56;;;;;;;6.30;3.87;;;12.70;99.90;;;;;;5077822;28;20187;-76
2022/10/31 01:21:27;;;;;;;12.43;3.50;;;12.70;99.90;;;;;;5113171;28;20177;-76
2022/10/31 01:23:54;;;;;;;10.37;4.60;;;12.70;99.90;;;;;;5113066;28;20177;-76
2022/10/31 01:26:24;;;;;;;13.13;4.47;;;12.60;99.90;;;;;;5113270;28;20476;-77
2022/10/31 01:28:57;;;;;;;8.30;3.57;;;12.60;99.90;;;;;;5113205;28;20423;-76
2022/10/31 01:31:28;;;;;;;9.70;4.27;;;12.50;99.90;;;;;;5094720;28;20457;-77
2022/10/31 01:33:54;;;;;;;10.80;3.83;;;12.40;99.90;;;;;;5113055;28;20414;-77
2022/10/31 01:36:32;;;;;;;10.40;4.60;;;12.40;99.90;;;;;;5112858;28;20413;-77
2022/10/31 01:39:03;;;;;;;6.50;3.80;;;12.40;99.90;;;;;;5094409;28;20425;-76
2022/10/31 01:41:32;;;;;;;14.77;3.70;;;12.40;99.90;;;;;;5112863;28;20415;-76
2022/10/31 01:44:01;;;;;;;8.27;3.63;;;12.20;99.90;;;;;;5112810;28;20425;-76
2022/10/31 01:46:35;;;;;;;8.33;4.33;;;12.20;99.90;;;;;;5112613;28;20450;-76
2022/10/31 01:49:06;;;;;;;8.03;3.90;;;12.20;99.90;;;;;;5094103;28;20419;-76
2022/10/31 01:51:38;;;;;;;9.60;3.73;;;12.30;99.90;;;;;;5094327;28;20482;-76
2022/10/31 01:54:12;;;;;;;12.23;3.43;;;12.10;99.90;;;;;;5112510;28;20420;-77
2022/10/31 01:56:41;;;;;;;7.90;3.73;;;12.00;99.90;;;;;;5112579;28;20496;-77
2022/10/31 01:59:10;;;;;;;7.47;3.40;;;12.00;99.90;;;;;;5112059;28;20932;-76
2022/10/31 02:01:37;;;;;;;10.30;5.17;;;11.90;99.90;;;;;;5112315;28;20983;-77
2022/10/31 02:04:03;;;;;;;10.53;3.93;;;11.90;99.90;;;;;;5094012;28;20430;-76
2022/10/31 02:06:35;;;;;;;8.23;4.10;;;11.80;99.90;;;;;;5112273;28;20446;-76
2022/10/31 02:09:03;;;;;;;11.60;4.17;;;11.80;99.90;;;;;;5112083;28;20946;-77
2022/10/31 02:11:30;;;;;;;5.03;3.20;;;11.80;99.90;;;;;;5112164;28;20451;-76
2022/10/31 02:13:56;;;;;;;9.07;4.30;;;11.70;99.90;;;;;;5093676;28;20795;-76
2022/10/31 02:16:21;;;;;;;7.40;3.57;;;11.70;99.90;;;;;;5112780;28;20464;-76
2022/10/31 02:18:48;;;;;;;12.63;4.97;;;11.60;99.90;;;;;;5076655;28;20454;-76
2022/10/31 02:21:37;;;;;;;7.33;3.60;;;11.70;99.90;;;;;;5075543;28;20500;-76
2022/10/31 02:24:23;;;;;;;8.03;4.17;;;11.60;99.90;;;;;;5111208;28;20197;-76
2022/10/31 02:27:14;;;;;;;6.23;3.20;;;11.60;99.90;;;;;;5092513;28;20439;-76
2022/10/31 02:29:56;;;;;;;14.80;4.57;;;11.60;99.90;;;;;;5092765;28;20486;-77
2022/10/31 02:32:54;;;;;;;8.70;4.00;;;11.60;99.90;;;;;;5111412;28;20465;-77
2022/10/31 02:35:37;;;;;;;7.33;3.30;;;11.50;99.90;;;;;;5092563;28;21026;-77
2022/10/31 02:38:31;;;;;;;5.23;3.47;;;11.50;99.90;;;;;;5111224;28;20565;-77
2022/10/31 02:41:06;;;;;;;9.60;4.20;;;11.40;99.90;;;;;;5111489;28;20414;-77
2022/10/31 02:43:48;;;;;;;8.63;4.40;;;11.40;99.90;;;;;;5110892;28;20427;-77
2022/10/31 02:46:38;;;;;;;7.00;3.77;;;11.30;99.90;;;;;;5110799;28;20418;-77
2022/10/31 02:49:18;;;;;;;8.70;3.70;;;11.40;99.90;;;;;;5078555;28;20419;-77
2022/10/31 02:51:45;;;;;;;4.73;3.43;;;11.40;99.90;;;;;;5092898;28;20476;-77
2022/10/31 02:54:20;;;;;;;7.57;3.90;;;11.40;99.90;;;;;;5093227;28;20538;-76
2022/10/31 02:56:48;;;;;;;13.87;4.37;;;11.30;99.90;;;;;;5111253;28;20430;-77
2022/10/31 02:59:14;;;;;;;7.80;3.80;;;11.30;99.90;;;;;;5092464;28;20423;-76
2022/10/31 03:01:40;;;;;;;6.97;3.10;;;11.20;99.90;;;;;;5110922;28;20473;-77
2022/10/31 03:04:42;;;;;;;7.67;3.83;;;11.30;99.90;;;;;;5111028;28;20513;-77
2022/10/31 03:07:37;;;;;;;9.17;4.00;;;11.10;99.90;;;;;;5081164;28;20242;-77
2022/10/31 03:10:12;;;;;;;7.23;3.63;;;11.00;99.90;;;;;;5110770;28;20458;-76
2022/10/31 03:12:47;;;;;;;6.10;3.80;;;11.00;99.90;;;;;;5110427;28;20982;-76
2022/10/31 03:15:53;;;;;;;18.20;4.80;;;11.00;99.90;;;;;;5092255;28;20483;-77
2022/10/31 03:18:33;;;;;;;13.83;4.00;;;11.00;99.90;;;;;;5030224;28;20442;-78
2022/10/31 03:21:19;;;;;;;9.83;3.40;;;11.00;99.90;;;;;;5103304;28;20814;-77
2022/10/31 03:23:47;;;;;;;6.57;3.77;;;10.90;99.90;;;;;;5109961;28;20945;-77
2022/10/31 03:26:15;;;;;;;11.60;3.87;;;10.70;99.90;;;;;;5110711;28;20414;-77
2022/10/31 03:28:50;;;;;;;11.47;4.20;;;10.90;99.90;;;;;;5091908;28;20430;-77
2022/10/31 03:31:19;;;;;;;7.30;3.57;;;10.90;99.90;;;;;;5110083;28;20902;-77
2022/10/31 03:33:46;;;;;;;11.37;3.70;;;11.10;99.90;;;;;;5110288;28;20479;-77
2022/10/31 03:36:15;;;;;;;6.30;3.37;;;10.90;99.90;;;;;;5091634;28;20427;-79
2022/10/31 03:38:43;;;;;;;9.80;3.73;;;10.80;99.90;;;;;;5058494;28;20839;-77
2022/10/31 03:41:13;;;;;;;11.50;4.07;;;10.90;99.90;;;;;;5110507;28;20422;-77
2022/10/31 03:43:46;;;;;;;8.93;3.97;;;10.90;99.90;;;;;;5091971;28;20430;-77
2022/10/31 03:46:11;;;;;;;10.73;4.33;;;10.80;99.90;;;;;;5092437;28;20448;-76
2022/10/31 03:48:38;;;;;;;10.90;4.40;;;10.80;99.90;;;;;;5074691;28;20807;-76
2022/10/31 03:51:14;;;;;;;6.80;3.73;;;10.70;99.90;;;;;;5110108;28;20179;-77
2022/10/31 03:53:54;;;;;;;9.20;4.17;;;10.70;99.90;;;;;;5093208;28;20425;-76
2022/10/31 03:56:33;;;;;;;8.60;3.07;;;10.70;99.90;;;;;;5110696;28;20428;-76
2022/10/31 03:59:07;;;;;;;12.33;3.90;;;10.60;99.90;;;;;;5110555;28;20928;-76
2022/10/31 04:01:38;;;;;;;6.40;3.70;;;10.50;99.90;;;;;;5110938;28;20471;-77
2022/10/31 04:04:05;;;;;;;5.97;3.33;;;10.50;99.90;;;;;;5110797;28;20970;-78
2022/10/31 04:06:33;;;;;;;5.90;3.47;;;10.50;99.90;;;;;;5092147;28;20445;-77
2022/10/31 04:09:03;;;;;;;10.90;3.90;;;10.50;99.90;;;;;;5092569;28;20433;-78
2022/10/31 04:11:36;;;;;;;7.10;3.50;;;10.50;99.90;;;;;;5110680;28;20468;-76
2022/10/31 04:14:04;;;;;;;13.33;3.50;;;10.50;99.90;;;;;;5110935;28;20420;-77
2022/10/31 04:16:30;;;;;;;10.43;3.60;;;10.60;99.90;;;;;;5092361;28;21061;-77
2022/10/31 04:18:56;;;;;;;7.10;3.67;;;10.50;99.90;;;;;;5091299;28;20417;-76
2022/10/31 04:21:28;;;;;;;8.47;3.63;;;10.50;99.90;;;;;;5109656;28;20527;-76
2022/10/31 04:23:53;;;;;;;13.03;3.80;;;10.50;99.90;;;;;;5109755;28;20174;-76
2022/10/31 04:26:19;;;;;;;7.33;3.30;;;10.60;99.90;;;;;;5091683;28;20428;-76
2022/10/31 04:28:45;;;;;;;9.87;4.03;;;10.60;99.90;;;;;;5091770;28;20266;-77
2022/10/31 04:31:14;;;;;;;14.57;3.50;;;10.40;99.90;;;;;;5110074;28;20298;-78
2022/10/31 04:33:40;;;;;;;10.80;4.53;;;10.40;99.90;;;;;;5110334;28;20179;-76
2022/10/31 04:36:05;;;;;;;5.47;3.50;;;10.60;99.90;;;;;;5091502;28;20427;-78
2022/10/31 04:38:31;;;;;;;6.07;4.70;;;10.40;99.90;;;;;;5109989;28;20187;-77
2022/10/31 04:40:57;;;;;;;8.57;6.03;;;10.40;99.90;;;;;;5091860;28;20207;-78
2022/10/31 04:43:22;;;;;;;9.10;5.77;;;10.40;99.90;;;;;;5093493;28;20190;-78
2022/10/31 04:45:48;;;;;;;8.33;4.40;;;10.20;99.90;;;;;;5095828;28;20182;-78
2022/10/31 04:48:14;;;;;;;10.73;4.50;;;10.50;99.90;;;;;;5095936;28;20234;-78
2022/10/31 04:50:39;;;;;;;15.00;4.10;;;10.30;99.90;;;;;;5096054;28;20534;-79
2022/10/31 04:53:05;;;;;;;9.37;4.63;;;10.20;99.90;;;;;;5114655;28;20574;-79
2022/10/31 04:55:31;;;;;;;6.10;4.13;;;10.20;99.90;;;;;;5114983;28;20179;-76
2022/10/31 04:57:57;;;;;;;7.93;4.13;;;10.20;99.90;;;;;;5113499;28;20442;-77
2022/10/31 05:00:23;;;;;;;8.63;4.13;;;10.30;99.90;;;;;;5113075;28;20499;-77
2022/10/31 05:02:55;;;;;;;11.90;4.83;;;10.20;99.90;;;;;;5094870;28;20208;-76
2022/10/31 05:05:29;;;;;;;5.80;4.07;;;10.20;99.90;;;;;;5113032;28;20429;-76
2022/10/31 05:07:55;;;;;;;8.70;4.03;;;10.30;99.90;;;;;;5112930;28;20483;-76
2022/10/31 05:10:26;;;;;;;15.80;3.93;;;10.10;99.90;;;;;;5094439;28;20460;-77
2022/10/31 05:12:54;;;;;;;8.50;4.67;;;10.20;99.90;;;;;;5112915;28;20431;-76
2022/10/31 05:15:22;;;;;;;12.23;7.20;;;10.20;99.90;;;;;;5112547;28;20414;-76
2022/10/31 05:17:48;;;;;;;28.40;17.33;;;10.10;99.90;;;;;;5112537;28;20539;-76
2022/10/31 05:20:16;;;;;;;9.50;5.33;;;10.10;99.90;;;;;;5077333;28;20428;-77
2022/10/31 05:22:43;;;;;;;15.30;6.17;;;9.90;99.90;;;;;;5112495;28;20456;-76
2022/10/31 05:25:09;;;;;;;10.80;4.63;;;9.70;99.90;;;;;;5112509;28;20421;-76
2022/10/31 05:27:34;;;;;;;11.57;4.60;;;9.70;99.90;;;;;;5112716;28;20497;-76
2022/10/31 05:30:00;;;;;;;9.60;4.40;;;9.80;99.90;;;;;;5094080;28;20184;-77
2022/10/31 05:32:25;;;;;;;7.20;4.13;;;9.80;99.90;;;;;;5094486;28;20659;-78
2022/10/31 05:34:51;;;;;;;7.30;4.30;;;9.80;99.90;;;;;;5094330;28;20221;-79
2022/10/31 05:37:17;;;;;;;13.00;4.87;;;10.10;99.90;;;;;;5094361;28;20243;-78
2022/10/31 05:39:42;;;;;;;9.93;4.20;;;10.10;99.90;;;;;;5077323;28;20214;-78
2022/10/31 05:42:08;;;;;;;10.67;4.00;;;10.10;99.90;;;;;;5077048;28;20218;-76
2022/10/31 05:44:33;;;;;;;12.53;4.90;;;10.10;99.90;;;;;;5112272;28;20652;-77
2022/10/31 05:46:59;;;;;;;9.20;4.50;;;10.10;99.90;;;;;;5094219;28;20201;-77
2022/10/31 05:49:24;;;;;;;8.13;4.27;;;10.00;99.90;;;;;;5094280;28;20222;-77
2022/10/31 05:51:50;;;;;;;9.70;4.73;;;10.10;99.90;;;;;;5093938;28;20183;-76
2022/10/31 05:54:16;;;;;;;10.53;4.30;;;10.00;99.90;;;;;;5112178;28;20182;-76
2022/10/31 05:56:41;;;;;;;8.43;4.50;;;10.00;99.90;;;;;;5094063;28;20207;-77
2022/10/31 05:59:07;;;;;;;11.10;3.93;;;10.00;99.90;;;;;;5112262;28;20223;-76
2022/10/31 06:01:32;;;;;;;6.93;4.30;;;10.10;99.90;;;;;;5093636;28;20221;-75
2022/10/31 06:03:58;;;;;;;5.83;4.00;;;10.20;99.90;;;;;;5094144;28;20184;-76
2022/10/31 06:06:23;;;;;;;8.23;4.47;;;10.30;99.90;;;;;;5060568;28;20662;-77
2022/10/31 06:08:49;;;;;;;10.40;4.73;;;10.10;99.90;;;;;;5077398;28;20183;-78
2022/10/31 06:11:15;;;;;;;10.40;4.40;;;10.20;99.90;;;;;;5112757;28;20195;-78
2022/10/31 06:13:40;;;;;;;9.67;4.60;;;10.20;99.90;;;;;;5060638;28;20650;-78
2022/10/31 06:16:06;;;;;;;10.60;5.37;;;10.30;99.90;;;;;;5112500;28;20188;-79
2022/10/31 06:18:31;;;;;;;7.93;4.17;;;10.10;99.90;;;;;;5094047;28;20247;-77
2022/10/31 06:20:57;;;;;;;8.30;4.10;;;10.10;99.90;;;;;;5076653;28;20672;-79
2022/10/31 06:23:23;;;;;;;10.53;5.07;;;9.90;99.90;;;;;;5092798;28;20235;-79
2022/10/31 06:25:49;;;;;;;11.40;5.53;;;9.80;99.90;;;;;;5094350;28;20215;-78
2022/10/31 06:28:15;;;;;;;7.83;4.30;;;9.80;99.90;;;;;;5111082;28;20237;-78
2022/10/31 06:30:40;;;;;;;6.00;3.63;;;9.80;99.90;;;;;;5075467;28;20434;-77
2022/10/31 06:33:06;;;;;;;16.80;4.40;;;10.00;99.90;;;;;;5075390;28;20668;-78
2022/10/31 06:35:32;;;;;;;13.40;4.37;;;9.90;99.90;;;;;;5075252;28;20246;-78
2022/10/31 06:37:58;;;;;;;10.80;4.20;;;9.80;99.90;;;;;;5091723;28;20281;-78
2022/10/31 06:40:23;;;;;;;6.13;4.53;;;9.90;99.90;;;;;;5091769;28;20433;-78
2022/10/31 06:42:58;;;;;;;6.67;3.50;;;9.90;99.90;;;;;;5091666;28;20217;-78
2022/10/31 06:45:24;;;;;;;10.20;5.00;;;9.90;99.90;;;;;;5110290;28;20296;-78
2022/10/31 06:47:54;;;;;;;9.97;3.73;;;10.00;99.90;;;;;;5109949;28;20486;-79
2022/10/31 06:50:21;;;;;;;10.07;4.07;;;10.00;99.90;;;;;;5074989;28;20424;-78
2022/10/31 06:52:54;;;;;;;14.67;3.93;;;10.10;99.90;;;;;;5091227;28;21012;-78
2022/10/31 06:55:24;;;;;;;9.63;4.60;;;10.20;99.90;;;;;;5091203;28;20933;-79
2022/10/31 06:57:54;;;;;;;6.73;4.17;;;10.30;99.90;;;;;;5092275;28;20873;-79
2022/10/31 07:00:21;;;;;;;8.33;3.70;;;10.40;99.90;;;;;;5110599;28;20425;-79
2022/10/31 07:03:15;;;;;;;10.83;4.37;;;10.50;99.90;;;;;;5091411;28;20529;-78
2022/10/31 07:05:41;;;;;;;8.73;4.37;;;10.60;99.90;;;;;;5088432;28;20425;-79
2022/10/31 07:08:09;;;;;;;7.53;3.77;;;10.70;99.90;;;;;;5091813;28;20472;-79
2022/10/31 07:10:36;;;;;;;7.63;3.80;;;10.80;99.90;;;;;;5109970;28;20427;-79
2022/10/31 07:13:04;;;;;;;8.50;4.63;;;10.90;99.90;;;;;;5109965;28;20464;-79
2022/10/31 07:15:34;;;;;;;11.57;4.97;;;11.00;99.90;;;;;;5110022;28;21004;-78
2022/10/31 07:18:01;;;;;;;9.80;5.70;;;11.00;99.90;;;;;;5091981;28;20520;-79
2022/10/31 07:20:27;;;;;;;8.77;5.20;;;11.10;99.90;;;;;;5110371;28;20424;-79
2022/10/31 07:22:52;;;;;;;8.30;4.10;;;11.10;99.90;;;;;;5091504;28;20493;-78
2022/10/31 07:25:18;;;;;;;14.80;5.63;;;11.40;99.90;;;;;;5074355;28;20907;-78
2022/10/31 07:27:44;;;;;;;10.10;4.43;;;11.30;99.90;;;;;;5091536;28;20229;-79
2022/10/31 07:30:13;;;;;;;13.40;4.63;;;11.40;99.90;;;;;;5074169;28;20225;-79
2022/10/31 07:32:47;;;;;;;14.10;5.23;;;11.40;99.90;;;;;;5091379;28;20195;-80
2022/10/31 07:35:16;;;;;;;16.63;5.20;;;11.50;99.90;;;;;;5108857;28;20417;-79
2022/10/31 07:37:41;;;;;;;17.40;5.50;;;11.50;99.90;;;;;;5090937;28;20460;-78
2022/10/31 07:40:08;;;;;;;11.13;6.03;;;11.50;99.90;;;;;;5109027;28;21083;-78
2022/10/31 07:42:45;;;;;;;8.93;4.83;;;11.70;99.90;;;;;;5090837;28;20571;-79
2022/10/31 07:45:13;;;;;;;8.73;4.20;;;11.80;99.90;;;;;;5109606;28;20440;-79
2022/10/31 07:47:47;;;;;;;7.50;4.90;;;11.90;99.90;;;;;;5109422;28;20855;-79
2022/10/31 07:50:17;;;;;;;13.43;5.23;;;12.10;99.90;;;;;;5109656;28;20458;-79
2022/10/31 07:52:42;;;;;;;14.57;5.63;;;12.20;99.90;;;;;;5091522;28;20418;-79
2022/10/31 07:55:09;;;;;;;15.33;6.13;;;12.30;99.90;;;;;;5074309;28;20429;-78
2022/10/31 07:57:36;;;;;;;9.37;5.90;;;12.40;99.90;;;;;;5109113;28;20213;-79
2022/10/31 08:00:03;;;;;;;13.20;5.03;;;12.50;99.90;;;;;;5090653;28;20426;-79
2022/10/31 08:02:29;;;;;;;12.67;5.60;;;12.60;99.90;;;;;;5074265;28;21020;-78
2022/10/31 08:04:55;;;;;;;7.10;4.87;;;12.80;99.90;;;;;;5073996;28;20419;-78
2022/10/31 08:07:20;;;;;;;11.33;4.90;;;12.90;99.90;;;;;;5109528;28;20194;-79
2022/10/31 08:09:46;;;;;;;13.57;5.70;;;13.00;99.90;;;;;;5091049;28;20185;-78
2022/10/31 08:12:11;;;;;;;10.63;6.00;;;13.10;99.90;;;;;;5074112;28;20181;-79
2022/10/31 08:14:37;;;;;;;13.33;5.70;;;13.20;99.90;;;;;;5091821;28;20560;-78
2022/10/31 08:17:03;;;;;;;12.43;6.13;;;13.30;99.90;;;;;;5091151;28;20217;-78
2022/10/31 08:19:28;;;;;;;18.27;7.23;;;13.50;99.90;;;;;;5091057;28;20710;-78
2022/10/31 08:21:54;;;;;;;22.47;7.80;;;13.60;99.90;;;;;;5109494;28;20263;-78
2022/10/31 08:24:21;;;;;;;12.60;7.20;;;13.70;99.90;;;;;;5091897;28;20698;-79
2022/10/31 08:26:46;;;;;;;17.30;10.30;;;13.80;99.90;;;;;;5091789;28;20469;-79
2022/10/31 08:29:12;;;;;;;15.00;8.20;;;14.00;99.90;;;;;;5091528;28;20923;-79
2022/10/31 08:31:38;;;;;;;12.80;6.30;;;14.10;99.90;;;;;;5109613;28;20872;-79
2022/10/31 08:34:04;;;;;;;9.70;5.73;;;14.40;99.90;;;;;;5110094;28;21048;-79
2022/10/31 08:36:29;;;;;;;12.87;7.00;;;14.80;99.90;;;;;;5075085;28;20209;-78
2022/10/31 08:38:55;;;;;;;11.37;6.70;;;14.90;99.90;;;;;;5110209;28;20190;-78
2022/10/31 08:41:21;;;;;;;12.40;7.17;;;15.00;99.90;;;;;;5057583;28;21050;-79
2022/10/31 08:43:47;;;;;;;9.53;6.27;;;15.40;99.90;;;;;;5109925;28;21080;-78
2022/10/31 08:46:12;;;;;;;19.20;8.80;;;15.50;99.90;;;;;;5074681;28;20232;-78
2022/10/31 08:48:38;;;;;;;11.73;5.50;;;15.50;99.90;;;;;;5091375;28;20205;-78
2022/10/31 08:51:04;;;;;;;12.23;5.73;;;15.50;99.90;;;;;;5109616;28;20185;-77
2022/10/31 08:53:30;;;;;;;13.10;5.13;;;15.70;99.90;;;;;;5091265;28;20186;-79
2022/10/31 08:55:56;;;;;;;9.43;6.60;;;15.80;99.90;;;;;;5091131;28;20183;-78
2022/10/31 08:58:22;;;;;;;13.90;6.10;;;15.90;99.90;;;;;;5073821;28;20202;-78
2022/10/31 09:00:50;;;;;;;12.93;6.27;;;16.00;99.90;;;;;;5090231;28;20455;-78
2022/10/31 09:03:22;;;;;;;29.73;6.93;;;16.10;99.90;;;;;;5090074;28;20477;-78
2022/10/31 09:05:49;;;;;;;15.67;7.27;;;15.80;99.90;;;;;;5091163;28;20912;-78
2022/10/31 09:08:16;;;;;;;22.37;8.10;;;15.70;99.90;;;;;;5109351;28;20451;-79
2022/10/31 09:10:42;;;;;;;17.67;9.10;;;15.70;99.90;;;;;;5109043;28;20424;-78
2022/10/31 09:13:11;;;;;;;16.53;7.67;;;15.90;99.90;;;;;;5074330;28;20471;-78
2022/10/31 09:15:39;;;;;;;19.87;7.20;;;16.00;99.90;;;;;;5090947;28;20438;-79
2022/10/31 09:18:05;;;;;;;18.07;7.10;;;16.00;99.90;;;;;;5090563;28;20485;-78
2022/10/31 09:20:33;;;;;;;13.30;7.30;;;16.10;99.90;;;;;;5090763;28;20420;-79
2022/10/31 09:23:02;;;;;;;17.30;7.63;;;16.00;99.90;;;;;;5090621;28;20498;-78
2022/10/31 09:25:28;;;;;;;19.40;7.27;;;16.20;99.90;;;;;;5073623;28;20420;-79
2022/10/31 09:27:58;;;;;;;17.20;7.17;;;16.40;99.90;;;;;;5108767;28;20451;-79
2022/10/31 09:30:25;;;;;;;16.03;7.57;;;16.70;99.90;;;;;;5076615;28;20428;-79
2022/10/31 09:32:59;;;;;;;13.37;6.63;;;16.80;99.90;;;;;;5094690;28;20422;-79
2022/10/31 09:35:25;;;;;;;15.20;6.60;;;16.90;99.90;;;;;;5112652;28;20941;-78
2022/10/31 09:37:59;;;;;;;14.80;6.57;;;17.10;99.90;;;;;;5094399;28;20475;-78
2022/10/31 09:40:47;;;;;;;11.33;5.60;;;17.20;99.90;;;;;;5112653;28;20425;-78
2022/10/31 09:43:34;;;;;;;10.83;5.67;;;17.50;99.90;;;;;;5111527;28;20485;-78
2022/10/31 09:46:08;;;;;;;10.27;5.10;;;17.50;99.90;;;;;;5094014;28;20888;-78
2022/10/31 09:48:51;;;;;;;10.17;5.07;;;17.80;99.90;;;;;;5113085;28;20410;-80
2022/10/31 09:51:21;;;;;;;14.03;5.57;;;18.10;99.90;;;;;;5111954;28;20498;-78
2022/10/31 09:53:50;;;;;;;12.73;6.00;;;18.20;99.90;;;;;;5093381;28;20432;-78
2022/10/31 09:56:19;;;;;;;12.33;6.17;;;18.40;99.90;;;;;;5093641;28;20430;-79
2022/10/31 09:58:53;;;;;;;14.10;5.67;;;18.40;99.90;;;;;;5112605;28;20415;-78
2022/10/31 10:01:50;;;;;;;13.20;5.83;;;18.40;99.90;;;;;;5113781;28;21009;-78
2022/10/31 10:04:39;;;;;;;12.03;5.40;;;18.50;99.90;;;;;;5113780;28;20421;-78
2022/10/31 10:07:32;;;;;;;13.23;5.73;;;18.70;99.90;;;;;;5113599;28;20431;-78
2022/10/31 10:10:00;;;;;;;13.13;5.90;;;18.70;99.90;;;;;;5095204;28;20424;-78
2022/10/31 10:12:41;;;;;;;9.43;6.00;;;18.80;99.90;;;;;;5113292;28;20417;-78
2022/10/31 10:15:45;;;;;;;7.53;4.30;;;18.90;99.90;;;;;;5113103;28;20417;-78
2022/10/31 10:18:17;;;;;;;12.10;5.37;;;18.80;99.90;;;;;;5095260;28;20480;-78
2022/10/31 10:21:17;;;;;;;9.60;4.93;;;19.00;99.90;;;;;;5112671;28;20427;-78
2022/10/31 10:24:17;;;;;;;8.97;4.50;;;19.20;99.90;;;;;;5091988;28;21088;-78
2022/10/31 10:27:08;;;;;;;9.23;4.40;;;19.40;99.90;;;;;;5040947;28;20494;-79
2022/10/31 10:29:49;;;;;;;11.00;4.20;;;19.60;99.90;;;;;;5092273;28;20417;-78
2022/10/31 10:32:24;;;;;;;9.03;4.20;;;19.50;99.90;;;;;;5110924;28;20445;-78
2022/10/31 10:34:54;;;;;;;8.50;4.30;;;19.50;99.90;;;;;;5077263;28;20408;-78
2022/10/31 10:37:30;;;;;;;9.00;4.30;;;19.50;99.90;;;;;;5111623;28;20836;-78
2022/10/31 10:40:21;;;;;;;11.37;4.67;;;19.50;99.90;;;;;;5092213;28;20419;-80
2022/10/31 10:43:23;;;;;;;12.27;4.70;;;19.60;99.90;;;;;;5075227;28;20464;-77
2022/10/31 10:49:13;;;;;;;8.10;4.57;;;19.50;99.90;;;;;;5109918;28;20535;-78
2022/10/31 10:51:59;;;;;;;14.13;5.30;;;19.40;99.90;;;;;;5110294;28;20431;-79
2022/10/31 10:54:40;;;;;;;10.70;5.27;;;19.30;99.90;;;;;;5110168;28;20403;-79
2022/10/31 10:57:21;;;;;;;20.10;5.30;;;19.40;99.90;;;;;;5091436;28;20498;-78
2022/10/31 10:59:47;;;;;;;13.43;5.83;;;19.40;99.90;;;;;;5109875;28;20422;-78
2022/10/31 11:02:19;;;;;;;8.97;5.10;;;19.50;99.90;;;;;;5092972;28;20469;-81
2022/10/31 11:04:49;;;;;;;12.53;5.17;;;19.50;99.90;;;;;;5112130;28;20755;-79
2022/10/31 11:07:15;;;;;;;17.97;6.23;;;19.80;99.90;;;;;;5109542;28;20431;-80
2022/10/31 11:09:40;;;;;;;10.80;5.50;;;20.10;99.90;;;;;;5074306;28;20469;-81
2022/10/31 11:12:29;;;;;;;11.17;5.13;;;20.50;99.90;;;;;;5109186;28;20213;-79
2022/10/31 11:14:59;;;;;;;15.20;6.93;;;20.70;99.90;;;;;;5110765;28;20177;-81
2022/10/31 11:17:36;;;;;;;14.37;5.73;;;20.80;99.90;;;;;;5091532;28;20452;-81
2022/10/31 11:20:47;;;;;;;18.20;6.40;;;20.80;99.90;;;;;;5110665;28;20898;-79
2022/10/31 11:23:19;;;;;;;14.37;5.50;;;21.00;99.90;;;;;;5106357;28;20482;-77
2022/10/31 11:25:54;;;;;;;13.27;6.23;;;21.10;99.90;;;;;;5091284;28;20416;-77
2022/10/31 11:28:20;;;;;;;12.70;6.00;;;21.20;99.90;;;;;;5090874;28;20439;-78
2022/10/31 11:30:49;;;;;;;11.40;5.63;;;21.10;99.90;;;;;;5109635;28;20518;-78
2022/10/31 11:33:23;;;;;;;13.20;5.77;;;20.90;99.90;;;;;;5109652;28;20183;-78
2022/10/31 11:35:49;;;;;;;16.70;6.97;;;20.90;99.90;;;;;;5090815;28;20959;-76
2022/10/31 11:38:21;;;;;;;18.63;8.20;;;20.70;99.90;;;;;;5090467;28;20823;-78
2022/10/31 11:41:12;;;;;;;15.00;6.27;;;20.60;99.90;;;;;;5090556;28;20436;-77
2022/10/31 11:43:44;;;;;;;9.57;4.90;;;20.50;99.90;;;;;;5073723;28;20781;-77
2022/10/31 11:46:15;;;;;;;14.47;6.53;;;20.50;99.90;;;;;;5091103;28;20423;-78
2022/10/31 11:48:50;;;;;;;11.00;5.97;;;20.70;99.90;;;;;;5109784;28;20443;-78
2022/10/31 11:51:27;;;;;;;12.20;5.93;;;20.70;99.90;;;;;;5091023;28;20764;-78
2022/10/31 11:53:56;;;;;;;13.13;6.67;;;20.90;99.90;;;;;;5109346;28;20435;-76
2022/10/31 11:56:22;;;;;;;12.13;5.67;;;20.90;99.90;;;;;;5090746;28;20472;-80
2022/10/31 11:59:02;;;;;;;14.03;6.80;;;21.00;99.90;;;;;;5110814;28;20439;-77
2022/10/31 12:01:30;;;;;;;11.77;6.50;;;21.10;99.90;;;;;;5109943;28;20212;-79
2022/10/31 12:04:09;;;;;;;14.43;6.50;;;21.00;99.90;;;;;;5091233;28;20408;-79
2022/10/31 12:06:36;;;;;;;14.30;5.87;;;21.00;99.90;;;;;;5109748;28;20934;-80
2022/10/31 12:09:10;;;;;;;15.83;5.33;;;21.00;99.90;;;;;;5110339;28;20449;-80
2022/10/31 12:12:02;;;;;;;14.93;6.10;;;21.20;99.90;;;;;;5110394;28;20427;-79
2022/10/31 12:14:43;;;;;;;12.97;7.90;;;21.40;99.90;;;;;;5077174;28;20492;-79
2022/10/31 12:17:24;;;;;;;15.67;7.00;;;21.60;99.90;;;;;;5109431;28;20437;-79
2022/10/31 12:20:19;;;;;;;25.03;6.70;;;22.00;99.40;;;;;;5109632;28;20512;-80
2022/10/31 12:23:00;;;;;;;17.40;6.93;;;22.00;98.50;;;;;;5091445;28;20488;-79
2022/10/31 12:25:28;;;;;;;12.83;6.37;;;21.80;99.40;;;;;;5090975;28;20423;-79
2022/10/31 12:28:09;;;;;;;17.73;6.87;;;21.40;99.30;;;;;;5109289;28;20430;-80
2022/10/31 12:31:06;;;;;;;16.40;6.00;;;21.10;99.50;;;;;;5091602;28;20503;-80
2022/10/31 12:33:58;;;;;;;10.93;5.90;;;20.90;99.90;;;;;;5091168;28;20525;-79
2022/10/31 12:36:40;;;;;;;14.27;5.43;;;20.60;99.90;;;;;;5090709;28;20419;-79
2022/10/31 12:39:14;;;;;;;10.57;6.13;;;20.30;99.90;;;;;;5108587;28;20533;-79
2022/10/31 12:41:49;;;;;;;14.10;5.63;;;20.10;99.90;;;;;;5108194;28;20448;-79
2022/10/31 12:44:40;;;;;;;12.97;5.70;;;20.00;99.90;;;;;;5090180;28;20411;-80
2022/10/31 12:47:17;;;;;;;13.97;5.97;;;19.80;99.90;;;;;;5108427;28;21311;-80
2022/10/31 12:50:01;;;;;;;10.53;5.17;;;19.70;99.90;;;;;;5108995;28;20405;-79
2022/10/31 12:53:04;;;;;;;12.03;5.60;;;19.70;99.90;;;;;;5089636;28;20498;-79
2022/10/31 12:55:44;;;;;;;20.50;6.47;;;19.40;99.90;;;;;;5108171;28;20410;-79
2022/10/31 12:58:31;;;;;;;15.87;6.07;;;19.30;99.90;;;;;;5089758;28;20450;-79
2022/10/31 13:01:25;;;;;;;15.23;5.27;;;19.30;99.90;;;;;;5090050;28;20431;-79
2022/10/31 13:04:15;;;;;;;18.43;5.63;;;19.20;99.90;;;;;;5090892;28;20452;-79
2022/10/31 13:06:49;;;;;;;13.70;4.67;;;19.10;99.90;;;;;;5112187;28;20846;-79